sensor_id;sensor_type;location;lat;lon;timestamp;pressure;altitude;pressure_sealevel;temperature;humidity
6028;BME280;3042;43.194;27.646;2023-06-10T00:02:21;101004.94;;;21.47;100.00
6028;BME280;3042;43.194;27.646;2023-06-10T00:04:48;101000.53;;;21.54;100.00
6028;BME280;3042;43.194;27.646;2023-06-10T00:07:15;100996.19;;;21.65;100.00
6028;BME280;3042;43.194;27.646;2023-06-10T00:09:42;100989.19;;;21.62;100.00
6028;BME280;3042;43.194;27.646;2023-06-10T00:12:11;100997.94;;;21.58;100.00
6028;BME280;3042;43.194;27.646;2023-06-10T00:14:39;100883.78;;;20.89;100.00
6028;BME280;3042;43.194;27.646;2023-06-10T00:17:07;100997.06;;;21.59;100.00
6028;BME280;3042;43.194;27.646;2023-06-10T00:19:35;100993.53;;;21.49;100.00
6028;BME280;3042;43.194;27.646;2023-06-10T00:22:06;100992.50;;;21.17;100.00
6028;BME280;3042;43.194;27.646;2023-06-10T00:24:34;100996.78;;;21.04;100.00
6028;BME280;3042;43.194;27.646;2023-06-10T00:27:04;100992.53;;;21.27;100.00
6028;BME280;3042;43.194;27.646;2023-06-10T00:29:34;100991.75;;;21.41;100.00
6028;BME280;3042;43.194;27.646;2023-06-10T00:32:01;100999.56;;;21.28;100.00
6028;BME280;3042;43.194;27.646;2023-06-10T00:34:28;101000.41;;;21.21;100.00
6028;BME280;3042;43.194;27.646;2023-06-10T00:36:55;101003.03;;;21.21;100.00
6028;BME280;3042;43.194;27.646;2023-06-10T00:39:22;100641.19;;;18.98;100.00
6028;BME280;3042;43.194;27.646;2023-06-10T00:41:50;101006.41;;;20.96;100.00
6028;BME280;3042;43.194;27.646;2023-06-10T00:44:17;100983.59;;;20.92;100.00
6028;BME280;3042;43.194;27.646;2023-06-10T00:46:45;101005.63;;;21.18;100.00
6028;BME280;3042;43.194;27.646;2023-06-10T00:49:13;101006.41;;;20.99;100.00
6028;BME280;3042;43.194;27.646;2023-06-10T00:51:40;100988.97;;;21.16;100.00
6028;BME280;3042;43.194;27.646;2023-06-10T00:54:08;100989.00;;;21.19;100.00
6028;BME280;3042;43.194;27.646;2023-06-10T00:56:35;100994.13;;;20.95;100.00
6028;BME280;3042;43.194;27.646;2023-06-10T00:59:03;100951.94;;;20.72;100.00
6028;BME280;3042;43.194;27.646;2023-06-10T01:01:30;100989.81;;;21.11;100.00
6028;BME280;3042;43.194;27.646;2023-06-10T01:04:01;100988.94;;;21.08;100.00
6028;BME280;3042;43.194;27.646;2023-06-10T01:06:34;100985.47;;;21.17;100.00
6028;BME280;3042;43.194;27.646;2023-06-10T01:09:09;100955.50;;;20.78;100.00
6028;BME280;3042;43.194;27.646;2023-06-10T01:11:43;100990.66;;;21.02;100.00
6028;BME280;3042;43.194;27.646;2023-06-10T01:14:13;100695.59;;;19.31;100.00
6028;BME280;3042;43.194;27.646;2023-06-10T01:16:40;100991.59;;;21.10;100.00
6028;BME280;3042;43.194;27.646;2023-06-10T01:19:11;100847.59;;;20.41;100.00
6028;BME280;3042;43.194;27.646;2023-06-10T01:21:39;100975.88;;;21.25;100.00
6028;BME280;3042;43.194;27.646;2023-06-10T01:24:07;100981.09;;;21.21;100.00
6028;BME280;3042;43.194;27.646;2023-06-10T01:26:36;100981.97;;;21.18;100.00
6028;BME280;3042;43.194;27.646;2023-06-10T01:29:07;100982.84;;;21.19;100.00
6028;BME280;3042;43.194;27.646;2023-06-10T01:31:42;100982.00;;;21.24;100.00
6028;BME280;3042;43.194;27.646;2023-06-10T01:34:14;100982.00;;;21.27;100.00
6028;BME280;3042;43.194;27.646;2023-06-10T01:36:46;100948.66;;;21.08;100.00
6028;BME280;3042;43.194;27.646;2023-06-10T01:39:15;100830.94;;;20.33;100.00
6028;BME280;3042;43.194;27.646;2023-06-10T01:41:43;100982.84;;;21.13;100.00
6028;BME280;3042;43.194;27.646;2023-06-10T01:44:10;100678.25;;;19.44;100.00
6028;BME280;3042;43.194;27.646;2023-06-10T01:46:37;100982.00;;;21.21;100.00
6028;BME280;3042;43.194;27.646;2023-06-10T01:49:05;100983.69;;;21.13;100.00
6028;BME280;3042;43.194;27.646;2023-06-10T01:51:32;100873.00;;;20.42;100.00
6028;BME280;3042;43.194;27.646;2023-06-10T01:54:01;100824.69;;;20.11;100.00
6028;BME280;3042;43.194;27.646;2023-06-10T01:56:28;100881.69;;;20.38;100.00
6028;BME280;3042;43.194;27.646;2023-06-10T01:58:55;100988.91;;;20.98;100.00
6028;BME280;3042;43.194;27.646;2023-06-10T02:01:24;100884.22;;;20.21;100.00
6028;BME280;3042;43.194;27.646;2023-06-10T02:03:52;100997.50;;;20.78;100.00
6028;BME280;3042;43.194;27.646;2023-06-10T02:06:19;100891.97;;;20.05;100.00
6028;BME280;3042;43.194;27.646;2023-06-10T02:08:46;101009.47;;;20.42;100.00
6028;BME280;3042;43.194;27.646;2023-06-10T02:11:15;101005.09;;;20.41;100.00
6028;BME280;3042;43.194;27.646;2023-06-10T02:13:42;100977.84;;;20.24;100.00
6028;BME280;3042;43.194;27.646;2023-06-10T02:16:09;101009.28;;;20.19;100.00
6028;BME280;3042;43.194;27.646;2023-06-10T02:18:38;100995.38;;;20.31;100.00
6028;BME280;3042;43.194;27.646;2023-06-10T02:21:06;100890.88;;;19.79;100.00
6028;BME280;3042;43.194;27.646;2023-06-10T02:23:33;100977.75;;;20.18;100.00
6028;BME280;3042;43.194;27.646;2023-06-10T02:26:00;101002.47;;;20.41;100.00
6028;BME280;3042;43.194;27.646;2023-06-10T02:28:29;100987.69;;;20.51;100.00
6028;BME280;3042;43.194;27.646;2023-06-10T02:30:56;100979.78;;;20.50;100.00
6028;BME280;3042;43.194;27.646;2023-06-10T02:33:24;100986.81;;;20.52;100.00
6028;BME280;3042;43.194;27.646;2023-06-10T02:35:52;100986.78;;;20.51;100.00
6028;BME280;3042;43.194;27.646;2023-06-10T02:38:19;100983.31;;;20.52;100.00
6028;BME280;3042;43.194;27.646;2023-06-10T02:40:47;100979.94;;;20.65;100.00
6028;BME280;3042;43.194;27.646;2023-06-10T02:43:14;100977.31;;;20.65;100.00
6028;BME280;3042;43.194;27.646;2023-06-10T02:45:43;100985.19;;;20.68;100.00
6028;BME280;3042;43.194;27.646;2023-06-10T02:48:10;100976.44;;;20.66;100.00
6028;BME280;3042;43.194;27.646;2023-06-10T02:50:37;100982.59;;;20.71;100.00
6028;BME280;3042;43.194;27.646;2023-06-10T02:53:05;100936.00;;;20.45;100.00
6028;BME280;3042;43.194;27.646;2023-06-10T02:55:33;100984.34;;;20.74;100.00
6028;BME280;3042;43.194;27.646;2023-06-10T02:58:01;100933.31;;;20.35;100.00
6028;BME280;3042;43.194;27.646;2023-06-10T03:00:28;100973.91;;;20.81;100.00
6028;BME280;3042;43.194;27.646;2023-06-10T03:02:57;100924.69;;;20.54;100.00
6028;BME280;3042;43.194;27.646;2023-06-10T03:05:28;100973.09;;;20.92;100.00
6028;BME280;3042;43.194;27.646;2023-06-10T03:07:56;100984.50;;;20.94;100.00
6028;BME280;3042;43.194;27.646;2023-06-10T03:10:23;100986.25;;;20.99;100.00
6028;BME280;3042;43.194;27.646;2023-06-10T03:12:50;100969.72;;;21.20;100.00
6028;BME280;3042;43.194;27.646;2023-06-10T03:15:17;100970.75;;;21.56;100.00
6028;BME280;3042;43.194;27.646;2023-06-10T03:17:46;100983.97;;;21.78;100.00
6028;BME280;3042;43.194;27.646;2023-06-10T03:20:15;100901.53;;;21.73;100.00
6028;BME280;3042;43.194;27.646;2023-06-10T03:22:42;100963.00;;;22.45;100.00
6028;BME280;3042;43.194;27.646;2023-06-10T03:25:09;100958.47;;;22.98;100.00
6028;BME280;3042;43.194;27.646;2023-06-10T03:27:39;100961.03;;;23.24;100.00
6028;BME280;3042;43.194;27.646;2023-06-10T03:30:07;100967.94;;;23.50;100.00
6028;BME280;3042;43.194;27.646;2023-06-10T03:32:35;100914.47;;;23.23;100.00
6028;BME280;3042;43.194;27.646;2023-06-10T03:35:02;100859.19;;;23.05;100.00
6028;BME280;3042;43.194;27.646;2023-06-10T03:37:31;100824.06;;;22.96;100.00
6028;BME280;3042;43.194;27.646;2023-06-10T03:39:58;100960.69;;;23.92;100.00
6028;BME280;3042;43.194;27.646;2023-06-10T03:42:25;100940.00;;;24.41;100.00
6028;BME280;3042;43.194;27.646;2023-06-10T03:44:52;100940.94;;;25.21;100.00
6028;BME280;3042;43.194;27.646;2023-06-10T03:47:20;100925.22;;;26.29;100.00
6028;BME280;3042;43.194;27.646;2023-06-10T03:49:47;100910.88;;;27.30;100.00
6028;BME280;3042;43.194;27.646;2023-06-10T03:52:15;100911.59;;;28.13;100.00
6028;BME280;3042;43.194;27.646;2023-06-10T03:54:43;100908.34;;;28.98;100.00
6028;BME280;3042;43.194;27.646;2023-06-10T03:57:11;100819.16;;;29.16;100.00
6028;BME280;3042;43.194;27.646;2023-06-10T03:59:38;100889.59;;;30.16;100.00
6028;BME280;3042;43.194;27.646;2023-06-10T04:02:05;100880.03;;;30.60;100.00
6028;BME280;3042;43.194;27.646;2023-06-10T04:04:34;100810.53;;;30.15;100.00
6028;BME280;3042;43.194;27.646;2023-06-10T04:07:03;100857.47;;;30.92;100.00
6028;BME280;3042;43.194;27.646;2023-06-10T04:09:30;100787.78;;;31.22;100.00
6028;BME280;3042;43.194;27.646;2023-06-10T04:11:59;100691.75;;;30.99;100.00
6028;BME280;3042;43.194;27.646;2023-06-10T04:14:27;100766.38;;;31.87;100.00
6028;BME280;3042;43.194;27.646;2023-06-10T04:16:56;100722.03;;;32.03;100.00
6028;BME280;3042;43.194;27.646;2023-06-10T04:19:24;100866.25;;;33.06;100.00
6028;BME280;3042;43.194;27.646;2023-06-10T04:21:52;100864.66;;;33.01;100.00
6028;BME280;3042;43.194;27.646;2023-06-10T04:24:19;100867.19;;;33.24;99.48
6028;BME280;3042;43.194;27.646;2023-06-10T04:26:46;100874.69;;;32.96;99.50
6028;BME280;3042;43.194;27.646;2023-06-10T04:29:15;100857.91;;;33.31;98.16
6028;BME280;3042;43.194;27.646;2023-06-10T04:31:42;100753.38;;;32.77;98.16
6028;BME280;3042;43.194;27.646;2023-06-10T04:34:09;100854.06;;;34.08;96.81
6028;BME280;3042;43.194;27.646;2023-06-10T04:36:36;100874.78;;;33.69;95.82
6028;BME280;3042;43.194;27.646;2023-06-10T04:39:03;100845.09;;;34.59;95.71
6028;BME280;3042;43.194;27.646;2023-06-10T04:41:31;100842.03;;;35.30;90.46
6028;BME280;3042;43.194;27.646;2023-06-10T04:43:58;100829.19;;;36.12;87.84
6028;BME280;3042;43.194;27.646;2023-06-10T04:46:27;100826.16;;;36.61;84.09
6028;BME280;3042;43.194;27.646;2023-06-10T04:48:56;100821.50;;;36.78;80.43
6028;BME280;3042;43.194;27.646;2023-06-10T04:51:23;100815.91;;;36.95;77.35
6028;BME280;3042;43.194;27.646;2023-06-10T04:53:51;100837.91;;;36.60;76.91
6028;BME280;3042;43.194;27.646;2023-06-10T04:56:19;100861.69;;;36.23;78.16
6028;BME280;3042;43.194;27.646;2023-06-10T04:58:47;100760.75;;;34.95;77.58
6028;BME280;3042;43.194;27.646;2023-06-10T05:01:14;100897.09;;;35.23;79.94
6028;BME280;3042;43.194;27.646;2023-06-10T05:03:43;100905.28;;;35.04;81.21
6028;BME280;3042;43.194;27.646;2023-06-10T05:06:10;100905.66;;;34.98;83.17
6028;BME280;3042;43.194;27.646;2023-06-10T05:08:37;100885.09;;;35.45;100.00
6028;BME280;3042;43.194;27.646;2023-06-10T05:11:04;100873.94;;;35.53;95.38
6028;BME280;3042;43.194;27.646;2023-06-10T05:13:31;100851.31;;;36.31;97.71
6028;BME280;3042;43.194;27.646;2023-06-10T05:15:59;100820.88;;;37.01;90.11
6028;BME280;3042;43.194;27.646;2023-06-10T05:18:26;100824.00;;;37.49;86.38
6028;BME280;3042;43.194;27.646;2023-06-10T05:20:54;100806.06;;;37.88;82.93
6028;BME280;3042;43.194;27.646;2023-06-10T05:23:21;100803.00;;;38.20;80.47
6028;BME280;3042;43.194;27.646;2023-06-10T05:25:49;100820.84;;;37.95;79.36
6028;BME280;3042;43.194;27.646;2023-06-10T05:28:16;100807.28;;;37.84;79.83
6028;BME280;3042;43.194;27.646;2023-06-10T05:30:43;100817.66;;;38.16;78.56
6028;BME280;3042;43.194;27.646;2023-06-10T05:33:11;100808.16;;;38.49;75.97
6028;BME280;3042;43.194;27.646;2023-06-10T05:35:38;100806.09;;;39.02;74.63
6028;BME280;3042;43.194;27.646;2023-06-10T05:38:06;100740.72;;;38.97;74.51
6028;BME280;3042;43.194;27.646;2023-06-10T05:40:33;100790.38;;;39.55;75.15
6028;BME280;3042;43.194;27.646;2023-06-10T05:43:01;100811.16;;;39.31;72.26
6028;BME280;3042;43.194;27.646;2023-06-10T05:45:28;100827.31;;;38.95;73.27
6028;BME280;3042;43.194;27.646;2023-06-10T05:47:55;100830.72;;;38.73;73.11
6028;BME280;3042;43.194;27.646;2023-06-10T05:50:25;100833.75;;;38.56;75.12
6028;BME280;3042;43.194;27.646;2023-06-10T05:52:52;100799.41;;;39.43;71.68
6028;BME280;3042;43.194;27.646;2023-06-10T05:55:21;100779.69;;;40.12;70.59
6028;BME280;3042;43.194;27.646;2023-06-10T05:57:58;100778.69;;;40.69;69.86
6028;BME280;3042;43.194;27.646;2023-06-10T06:00:25;100785.84;;;40.47;67.54
6028;BME280;3042;43.194;27.646;2023-06-10T06:02:52;100802.44;;;39.98;67.39
6028;BME280;3042;43.194;27.646;2023-06-10T06:05:20;100845.38;;;38.95;66.94
6028;BME280;3042;43.194;27.646;2023-06-10T06:07:47;100877.50;;;36.87;71.11
6028;BME280;3042;43.194;27.646;2023-06-10T06:10:14;100893.44;;;36.32;72.74
6028;BME280;3042;43.194;27.646;2023-06-10T06:12:42;100883.59;;;36.31;74.63
6028;BME280;3042;43.194;27.646;2023-06-10T06:15:10;100871.31;;;36.56;75.97
6028;BME280;3042;43.194;27.646;2023-06-10T06:17:37;100841.78;;;37.12;76.87
6028;BME280;3042;43.194;27.646;2023-06-10T06:20:06;100837.44;;;37.64;73.77
6028;BME280;3042;43.194;27.646;2023-06-10T06:22:33;100807.06;;;38.38;73.31
6028;BME280;3042;43.194;27.646;2023-06-10T06:25:00;100724.97;;;39.50;71.91
6028;BME280;3042;43.194;27.646;2023-06-10T06:27:39;100744.34;;;40.58;68.17
6028;BME280;3042;43.194;27.646;2023-06-10T06:30:15;100777.44;;;40.62;66.70
6028;BME280;3042;43.194;27.646;2023-06-10T06:32:43;100761.47;;;41.34;67.19
6028;BME280;3042;43.194;27.646;2023-06-10T06:35:10;100776.38;;;41.08;65.80
6028;BME280;3042;43.194;27.646;2023-06-10T06:37:37;100750.16;;;42.13;63.81
6028;BME280;3042;43.194;27.646;2023-06-10T06:40:06;100738.31;;;42.65;61.54
6028;BME280;3042;43.194;27.646;2023-06-10T06:42:33;100734.94;;;43.31;60.73
6028;BME280;3042;43.194;27.646;2023-06-10T06:45:00;100730.34;;;43.51;59.49
6028;BME280;3042;43.194;27.646;2023-06-10T06:47:29;100755.47;;;42.75;58.94
6028;BME280;3042;43.194;27.646;2023-06-10T06:49:56;100707.84;;;41.59;59.35
6028;BME280;3042;43.194;27.646;2023-06-10T06:52:23;100800.25;;;40.70;61.17
6028;BME280;3042;43.194;27.646;2023-06-10T06:54:50;100808.72;;;40.09;63.20
6028;BME280;3042;43.194;27.646;2023-06-10T06:57:17;100819.75;;;39.36;63.49
6028;BME280;3042;43.194;27.646;2023-06-10T06:59:45;100793.41;;;38.66;65.04
6028;BME280;3042;43.194;27.646;2023-06-10T07:02:12;100848.13;;;37.38;66.87
6028;BME280;3042;43.194;27.646;2023-06-10T07:04:40;100837.88;;;36.74;70.06
6028;BME280;3042;43.194;27.646;2023-06-10T07:07:08;100816.25;;;37.03;70.23
6028;BME280;3042;43.194;27.646;2023-06-10T07:09:35;100763.63;;;36.56;70.24
6028;BME280;3042;43.194;27.646;2023-06-10T07:12:03;100827.25;;;36.57;70.91
6028;BME280;3042;43.194;27.646;2023-06-10T07:14:31;100827.47;;;36.11;73.31
6028;BME280;3042;43.194;27.646;2023-06-10T07:16:58;100824.22;;;36.20;72.49
6028;BME280;3042;43.194;27.646;2023-06-10T07:19:25;100831.03;;;35.81;73.85
6028;BME280;3042;43.194;27.646;2023-06-10T07:21:54;100826.09;;;36.04;73.63
6028;BME280;3042;43.194;27.646;2023-06-10T07:24:21;100845.50;;;35.48;73.70
6028;BME280;3042;43.194;27.646;2023-06-10T07:26:48;100788.41;;;35.29;74.13
6028;BME280;3042;43.194;27.646;2023-06-10T07:29:15;100823.78;;;35.51;74.70
6028;BME280;3042;43.194;27.646;2023-06-10T07:31:43;100826.41;;;35.69;71.74
6028;BME280;3042;43.194;27.646;2023-06-10T07:34:14;100818.72;;;35.77;73.16
6028;BME280;3042;43.194;27.646;2023-06-10T07:36:48;100747.84;;;35.78;73.70
6028;BME280;3042;43.194;27.646;2023-06-10T07:39:23;100819.25;;;35.68;72.31
6028;BME280;3042;43.194;27.646;2023-06-10T07:41:53;100729.94;;;35.33;71.45
6028;BME280;3042;43.194;27.646;2023-06-10T07:44:24;100846.78;;;35.09;71.79
6028;BME280;3042;43.194;27.646;2023-06-10T07:46:59;100811.94;;;34.60;73.16
6028;BME280;3042;43.194;27.646;2023-06-10T07:49:34;100842.28;;;34.45;74.44
6028;BME280;3042;43.194;27.646;2023-06-10T07:52:10;100832.38;;;34.30;71.51
6028;BME280;3042;43.194;27.646;2023-06-10T07:54:44;100738.38;;;34.31;73.74
6028;BME280;3042;43.194;27.646;2023-06-10T07:57:15;100809.66;;;35.18;73.54
6028;BME280;3042;43.194;27.646;2023-06-10T07:59:43;100797.06;;;35.34;71.34
6028;BME280;3042;43.194;27.646;2023-06-10T08:02:11;100779.91;;;35.67;70.43
6028;BME280;3042;43.194;27.646;2023-06-10T08:04:38;100777.22;;;35.81;69.92
6028;BME280;3042;43.194;27.646;2023-06-10T08:07:05;100762.25;;;35.91;67.47
6028;BME280;3042;43.194;27.646;2023-06-10T08:09:32;100791.00;;;35.61;68.66
6028;BME280;3042;43.194;27.646;2023-06-10T08:12:01;100784.97;;;35.41;69.41
6028;BME280;3042;43.194;27.646;2023-06-10T08:14:28;100762.09;;;35.95;69.69
6028;BME280;3042;43.194;27.646;2023-06-10T08:16:55;100771.91;;;35.65;70.03
6028;BME280;3042;43.194;27.646;2023-06-10T08:19:22;100766.66;;;35.18;68.70
6028;BME280;3042;43.194;27.646;2023-06-10T08:21:49;100764.81;;;35.64;69.41
6028;BME280;3042;43.194;27.646;2023-06-10T08:24:16;100773.31;;;35.57;66.67
6028;BME280;3042;43.194;27.646;2023-06-10T08:26:44;100762.00;;;35.66;66.10
6028;BME280;3042;43.194;27.646;2023-06-10T08:29:13;100588.50;;;35.01;67.71
6028;BME280;3042;43.194;27.646;2023-06-10T08:31:41;100750.97;;;36.29;66.54
6028;BME280;3042;43.194;27.646;2023-06-10T08:34:09;100749.56;;;36.08;65.99
6028;BME280;3042;43.194;27.646;2023-06-10T08:36:37;100757.31;;;36.14;65.86
6028;BME280;3042;43.194;27.646;2023-06-10T08:39:04;100757.75;;;35.92;65.37
6028;BME280;3042;43.194;27.646;2023-06-10T08:41:35;100748.00;;;35.75;66.34
6028;BME280;3042;43.194;27.646;2023-06-10T08:44:08;100722.91;;;35.60;66.78
6028;BME280;3042;43.194;27.646;2023-06-10T08:46:38;100744.50;;;35.59;66.10
6028;BME280;3042;43.194;27.646;2023-06-10T08:49:09;100774.97;;;35.29;63.27
6028;BME280;3042;43.194;27.646;2023-06-10T08:51:37;100773.59;;;35.22;64.37
6028;BME280;3042;43.194;27.646;2023-06-10T08:54:13;100747.44;;;34.78;62.88
6028;BME280;3042;43.194;27.646;2023-06-10T08:56:43;100784.78;;;34.82;65.39
6028;BME280;3042;43.194;27.646;2023-06-10T08:59:11;100781.56;;;34.76;65.18
6028;BME280;3042;43.194;27.646;2023-06-10T09:01:40;100784.91;;;34.79;65.42
6028;BME280;3042;43.194;27.646;2023-06-10T09:04:07;100782.47;;;34.59;62.26
6028;BME280;3042;43.194;27.646;2023-06-10T09:06:35;100729.53;;;34.29;62.09
6028;BME280;3042;43.194;27.646;2023-06-10T09:09:05;100790.81;;;34.37;62.08
6028;BME280;3042;43.194;27.646;2023-06-10T09:11:33;100797.34;;;34.15;61.04
6028;BME280;3042;43.194;27.646;2023-06-10T09:14:02;100651.78;;;33.28;61.83
6028;BME280;3042;43.194;27.646;2023-06-10T09:16:29;100788.88;;;34.23;63.21
6028;BME280;3042;43.194;27.646;2023-06-10T09:18:58;100785.44;;;34.21;61.40
6028;BME280;3042;43.194;27.646;2023-06-10T09:21:25;100782.00;;;34.35;61.84
6028;BME280;3042;43.194;27.646;2023-06-10T09:23:52;100777.66;;;34.16;62.52
6028;BME280;3042;43.194;27.646;2023-06-10T09:26:19;100779.84;;;34.25;63.06
6028;BME280;3042;43.194;27.646;2023-06-10T09:28:48;100784.66;;;34.01;63.11
6028;BME280;3042;43.194;27.646;2023-06-10T09:31:16;100773.50;;;34.26;63.87
6028;BME280;3042;43.194;27.646;2023-06-10T09:33:45;100746.19;;;33.85;61.92
6028;BME280;3042;43.194;27.646;2023-06-10T09:36:21;100658.94;;;33.62;59.20
6028;BME280;3042;43.194;27.646;2023-06-10T09:38:49;100766.53;;;34.40;60.67
6028;BME280;3042;43.194;27.646;2023-06-10T09:41:17;100772.75;;;34.40;60.12
6028;BME280;3042;43.194;27.646;2023-06-10T09:43:45;100774.19;;;34.30;61.05
6028;BME280;3042;43.194;27.646;2023-06-10T09:46:15;100621.88;;;34.19;62.57
6028;BME280;3042;43.194;27.646;2023-06-10T09:48:43;100750.78;;;34.97;62.63
6028;BME280;3042;43.194;27.646;2023-06-10T09:51:13;100459.53;;;33.33;59.40
6028;BME280;3042;43.194;27.646;2023-06-10T09:53:42;100753.00;;;34.75;58.55
6028;BME280;3042;43.194;27.646;2023-06-10T09:56:10;100647.22;;;34.45;59.83
6028;BME280;3042;43.194;27.646;2023-06-10T09:58:38;100739.13;;;34.82;60.38
6028;BME280;3042;43.194;27.646;2023-06-10T10:01:10;100735.97;;;34.90;58.96
6028;BME280;3042;43.194;27.646;2023-06-10T10:03:44;100758.84;;;34.81;59.05
6028;BME280;3042;43.194;27.646;2023-06-10T10:06:14;100738.06;;;35.01;59.45
6028;BME280;3042;43.194;27.646;2023-06-10T10:08:45;100720.38;;;35.13;59.34
6028;BME280;3042;43.194;27.646;2023-06-10T10:11:14;100529.78;;;34.03;58.64
6028;BME280;3042;43.194;27.646;2023-06-10T10:13:45;100683.25;;;34.73;58.78
6028;BME280;3042;43.194;27.646;2023-06-10T10:16:16;100718.97;;;35.21;58.70
6028;BME280;3042;43.194;27.646;2023-06-10T10:18:54;100714.03;;;35.14;58.46
6028;BME280;3042;43.194;27.646;2023-06-10T10:21:24;100608.84;;;34.59;58.79
6028;BME280;3042;43.194;27.646;2023-06-10T10:23:58;100705.88;;;35.45;57.53
6028;BME280;3042;43.194;27.646;2023-06-10T10:26:32;100594.69;;;34.87;56.01
6028;BME280;3042;43.194;27.646;2023-06-10T10:29:10;100699.59;;;35.30;55.94
6028;BME280;3042;43.194;27.646;2023-06-10T10:31:41;100696.28;;;35.56;56.34
6028;BME280;3042;43.194;27.646;2023-06-10T10:34:15;100579.97;;;34.79;56.22
6028;BME280;3042;43.194;27.646;2023-06-10T10:36:45;100500.63;;;34.29;56.96
6028;BME280;3042;43.194;27.646;2023-06-10T10:39:14;100707.00;;;35.27;57.48
6028;BME280;3042;43.194;27.646;2023-06-10T10:41:42;100645.16;;;34.97;54.90
6028;BME280;3042;43.194;27.646;2023-06-10T10:44:14;100700.94;;;35.23;55.90
6028;BME280;3042;43.194;27.646;2023-06-10T10:46:49;100668.31;;;35.74;56.36
6028;BME280;3042;43.194;27.646;2023-06-10T10:49:18;100603.69;;;35.17;55.24
6028;BME280;3042;43.194;27.646;2023-06-10T10:51:57;100694.88;;;35.20;56.00
6028;BME280;3042;43.194;27.646;2023-06-10T10:54:32;100697.56;;;35.20;54.78
6028;BME280;3042;43.194;27.646;2023-06-10T10:57:15;100701.13;;;35.04;55.17
6028;BME280;3042;43.194;27.646;2023-06-10T10:59:55;100696.16;;;34.82;55.76
6028;BME280;3042;43.194;27.646;2023-06-10T11:02:40;100710.16;;;34.87;58.06
6028;BME280;3042;43.194;27.646;2023-06-10T11:05:09;100703.53;;;35.09;56.54
6028;BME280;3042;43.194;27.646;2023-06-10T11:07:53;100658.22;;;35.33;55.87
6028;BME280;3042;43.194;27.646;2023-06-10T11:10:29;100696.47;;;34.92;56.52
6028;BME280;3042;43.194;27.646;2023-06-10T11:12:59;100585.34;;;34.33;57.37
6028;BME280;3042;43.194;27.646;2023-06-10T11:15:27;100705.03;;;34.99;57.06
6028;BME280;3042;43.194;27.646;2023-06-10T11:18:14;100549.84;;;33.96;57.43
6028;BME280;3042;43.194;27.646;2023-06-10T11:21:01;100708.81;;;34.64;54.08
6028;BME280;3042;43.194;27.646;2023-06-10T11:23:39;100701.53;;;34.66;58.06
6028;BME280;3042;43.194;27.646;2023-06-10T11:26:16;100619.44;;;34.31;57.59
6028;BME280;3042;43.194;27.646;2023-06-10T11:29:02;100648.88;;;34.80;58.05
6028;BME280;3042;43.194;27.646;2023-06-10T11:31:31;100683.28;;;35.03;54.42
6028;BME280;3042;43.194;27.646;2023-06-10T11:34:00;100667.63;;;35.26;55.42
6028;BME280;3042;43.194;27.646;2023-06-10T11:36:31;100624.06;;;35.35;55.96
6028;BME280;3042;43.194;27.646;2023-06-10T11:39:01;100638.50;;;35.91;57.37
6028;BME280;3042;43.194;27.646;2023-06-10T11:41:30;100440.59;;;34.60;57.65
6028;BME280;3042;43.194;27.646;2023-06-10T11:44:01;100644.47;;;35.82;57.32
6028;BME280;3042;43.194;27.646;2023-06-10T11:46:28;100470.56;;;34.82;56.45
6028;BME280;3042;43.194;27.646;2023-06-10T11:48:57;100631.03;;;36.11;56.50
6028;BME280;3042;43.194;27.646;2023-06-10T11:51:26;100632.75;;;35.98;55.46
6028;BME280;3042;43.194;27.646;2023-06-10T11:53:54;100606.34;;;36.46;56.02
6028;BME280;3042;43.194;27.646;2023-06-10T11:56:24;100609.56;;;36.51;54.64
6028;BME280;3042;43.194;27.646;2023-06-10T11:58:53;100610.19;;;36.42;54.80
6028;BME280;3042;43.194;27.646;2023-06-10T12:01:21;100583.59;;;36.90;55.89
6028;BME280;3042;43.194;27.646;2023-06-10T12:03:57;100542.63;;;36.59;56.75
6028;BME280;3042;43.194;27.646;2023-06-10T12:06:24;100603.19;;;36.66;56.18
6028;BME280;3042;43.194;27.646;2023-06-10T12:08:57;100584.56;;;36.49;56.14
6028;BME280;3042;43.194;27.646;2023-06-10T12:11:28;100534.88;;;36.27;56.80
6028;BME280;3042;43.194;27.646;2023-06-10T12:14:02;100593.53;;;36.76;55.78
6028;BME280;3042;43.194;27.646;2023-06-10T12:16:29;100581.03;;;37.01;56.28
6028;BME280;3042;43.194;27.646;2023-06-10T12:19:01;100587.91;;;36.80;55.20
6028;BME280;3042;43.194;27.646;2023-06-10T12:21:32;100517.75;;;36.28;55.07
6028;BME280;3042;43.194;27.646;2023-06-10T12:24:08;100559.47;;;37.01;55.06
6028;BME280;3042;43.194;27.646;2023-06-10T12:26:40;100487.66;;;36.49;55.17
6028;BME280;3042;43.194;27.646;2023-06-10T12:29:21;100560.34;;;37.02;55.84
6028;BME280;3042;43.194;27.646;2023-06-10T12:31:57;100558.75;;;37.25;55.75
6028;BME280;3042;43.194;27.646;2023-06-10T12:34:33;100565.72;;;37.02;54.65
6028;BME280;3042;43.194;27.646;2023-06-10T12:37:01;100584.41;;;36.38;54.47
6028;BME280;3042;43.194;27.646;2023-06-10T12:39:30;100583.13;;;36.43;54.68
6028;BME280;3042;43.194;27.646;2023-06-10T12:41:59;100592.94;;;36.17;54.77
6028;BME280;3042;43.194;27.646;2023-06-10T12:44:30;100589.00;;;36.23;54.79
6028;BME280;3042;43.194;27.646;2023-06-10T12:46:58;100581.47;;;36.28;55.26
6028;BME280;3042;43.194;27.646;2023-06-10T12:49:25;100572.88;;;36.35;55.24
6028;BME280;3042;43.194;27.646;2023-06-10T12:51:53;100578.16;;;36.10;54.85
6028;BME280;3042;43.194;27.646;2023-06-10T12:54:20;100599.16;;;35.62;55.30
6028;BME280;3042;43.194;27.646;2023-06-10T12:56:47;100595.97;;;35.41;54.78
6028;BME280;3042;43.194;27.646;2023-06-10T12:59:16;100326.91;;;34.02;54.92
6028;BME280;3042;43.194;27.646;2023-06-10T13:01:59;100580.22;;;35.04;55.80
6028;BME280;3042;43.194;27.646;2023-06-10T13:04:39;100597.78;;;35.40;55.99
6028;BME280;3042;43.194;27.646;2023-06-10T13:07:06;100465.09;;;34.70;57.58
6028;BME280;3042;43.194;27.646;2023-06-10T13:09:33;100589.75;;;35.69;58.65